createdAt,value
2019-02-02T00:00:25.202Z,98280.91
2019-02-02T00:02:53.656Z,98275.02
2019-02-02T00:05:22.103Z,98280.86
2019-02-02T00:07:50.519Z,98279.59
2019-02-02T00:10:18.967Z,98276.21
2019-02-02T00:12:47.673Z,98267.83
2019-02-02T00:15:16.128Z,98269.53
2019-02-02T00:17:44.564Z,98270.37
2019-02-02T00:20:13.105Z,98274.96
2019-02-02T00:22:41.580Z,98272.89
2019-02-02T00:25:11.850Z,98278.34
2019-02-02T00:27:41.740Z,98273.74
2019-02-02T00:30:16.008Z,98267.47
2019-02-02T00:32:44.424Z,98265.77
2019-02-02T00:35:13.290Z,98262.05
2019-02-02T00:37:41.802Z,98263.69
2019-02-02T00:40:13.156Z,98261.19
2019-02-02T00:42:41.643Z,98268.34
2019-02-02T00:45:15.798Z,98273.80
2019-02-02T00:47:44.374Z,98291.86
2019-02-02T00:50:14.631Z,98298.95
2019-02-02T00:52:43.136Z,98307.77
2019-02-02T00:55:17.116Z,98305.69
2019-02-02T00:57:52.911Z,98311.96
2019-02-02T01:00:21.470Z,98305.62
2019-02-02T01:02:49.999Z,98312.84
2019-02-02T01:05:20.355Z,98317.86
2019-02-02T01:07:48.943Z,98313.22
2019-02-02T01:10:35.199Z,98319.08
2019-02-02T01:13:04.245Z,98316.19
2019-02-02T01:15:32.974Z,98312.84
2019-02-02T01:18:01.509Z,98302.02
2019-02-02T01:20:31.879Z,98305.39
2019-02-02T01:23:00.547Z,98305.41
2019-02-02T01:25:29.122Z,98308.78
2019-02-02T01:28:04.994Z,98301.63
2019-02-02T01:30:28.026Z,98304.97
2019-02-02T01:32:56.443Z,98310.42
2019-02-02T01:35:24.986Z,98314.59
2019-02-02T01:37:53.527Z,98315.83
2019-02-02T01:40:24.688Z,98322.47
2019-02-02T01:42:53.276Z,98325.84
2019-02-02T01:45:24.158Z,98328.75
2019-02-02T01:47:53.020Z,98323.38
2019-02-02T01:50:26.790Z,98327.54
2019-02-02T01:52:55.766Z,98320.81
2019-02-02T01:55:24.373Z,98324.59
2019-02-02T01:57:52.870Z,98314.92
2019-02-02T02:00:27.353Z,98316.66
2019-02-02T02:02:55.939Z,98316.19
2019-02-02T02:05:24.400Z,98315.83
2019-02-02T02:07:53.377Z,98314.97
2019-02-02T02:10:21.967Z,98308.69
2019-02-02T02:12:50.857Z,98308.73
2019-02-02T02:15:20.334Z,98302.50
2019-02-02T02:17:49.135Z,98299.60
2019-02-02T02:20:20.569Z,98298.39
2019-02-02T02:22:50.440Z,98295.45
2019-02-02T02:25:20.987Z,98307.14
2019-02-02T02:27:50.261Z,98307.58
2019-02-02T02:30:20.959Z,98315.94
2019-02-02T02:32:49.470Z,98313.47
2019-02-02T02:35:18.017Z,98311.35
2019-02-02T02:37:46.619Z,98315.17
2019-02-02T02:40:17.658Z,98306.77
2019-02-02T02:42:46.187Z,98308.88
2019-02-02T02:45:15.374Z,98305.98
2019-02-02T02:47:43.934Z,98303.89
2019-02-02T02:50:14.952Z,98300.13
2019-02-02T02:52:43.376Z,98297.19
2019-02-02T02:55:13.844Z,98297.19
2019-02-02T02:57:42.414Z,98298.45
2019-02-02T03:00:22.889Z,98296.80
2019-02-02T03:02:51.562Z,98295.94
2019-02-02T03:05:20.243Z,98296.75
2019-02-02T03:07:49.847Z,98297.58
2019-02-02T03:10:20.837Z,98297.53
2019-02-02T03:12:49.469Z,98291.69
2019-02-02T03:15:20.100Z,98295.83
2019-02-02T03:17:50.108Z,98296.27
2019-02-02T03:20:18.601Z,98292.02
2019-02-02T03:22:47.108Z,98290.75
2019-02-02T03:25:20.835Z,98284.90
2019-02-02T03:27:49.288Z,98279.93
2019-02-02T03:30:19.695Z,98283.26
2019-02-02T03:32:48.709Z,98294.57
2019-02-02T03:35:20.237Z,98289.55
2019-02-02T03:37:48.821Z,98292.50
2019-02-02T03:40:19.400Z,98290.42
2019-02-02T03:42:47.979Z,98294.53
2019-02-02T03:45:19.238Z,98291.63
2019-02-02T03:47:47.676Z,98284.13
2019-02-02T03:50:16.289Z,98272.02
2019-02-02T03:52:45.088Z,98260.36
2019-02-02T03:55:15.474Z,98251.17
2019-02-02T03:57:44.024Z,98257.41
2019-02-02T04:00:14.998Z,98259.53
2019-02-02T04:02:43.598Z,98270.80
2019-02-02T04:05:14.852Z,98280.85
2019-02-02T04:07:43.281Z,98289.64
2019-02-02T04:10:13.490Z,98298.39
2019-02-02T04:12:41.910Z,98309.70
2019-02-02T04:15:12.682Z,98321.84
2019-02-02T04:17:41.725Z,98324.31
2019-02-02T04:20:13.372Z,98305.88
2019-02-02T04:22:41.880Z,98297.53
2019-02-02T04:25:10.806Z,98300.05
2019-02-02T04:27:39.297Z,98306.77
2019-02-02T04:30:16.763Z,98293.80
2019-02-02T04:32:45.269Z,98291.77
2019-02-02T04:35:14.341Z,98289.22
2019-02-02T04:37:43.261Z,98292.13
2019-02-02T04:40:13.932Z,98283.75
2019-02-02T04:42:42.442Z,98285.44
2019-02-02T04:45:13.877Z,98278.77
2019-02-02T04:47:42.311Z,98287.56
2019-02-02T04:50:13.418Z,98294.20
2019-02-02T04:52:42.115Z,98294.19
2019-02-02T04:55:13.209Z,98288.77
2019-02-02T04:57:41.619Z,98290.03
2019-02-02T05:00:16.612Z,98310.52
2019-02-02T05:02:45.080Z,98314.68
2019-02-02T05:05:16.143Z,98319.66
2019-02-02T05:07:44.663Z,98318.78
2019-02-02T05:10:16.060Z,98325.07
2019-02-02T05:12:44.492Z,98320.43
2019-02-02T05:15:13.172Z,98311.20
2019-02-02T05:17:41.604Z,98317.54
2019-02-02T05:20:20.964Z,98311.64
2019-02-02T05:22:49.457Z,98312.16
2019-02-02T05:25:18.194Z,98316.72
2019-02-02T05:27:46.731Z,98321.25
2019-02-02T05:30:27.029Z,98335.48
2019-02-02T05:32:55.459Z,98320.39
2019-02-02T05:35:23.952Z,98326.66
2019-02-02T05:37:52.541Z,98330.06
2019-02-02T05:40:22.394Z,98331.27
2019-02-02T05:42:51.166Z,98329.23
2019-02-02T05:45:23.733Z,98330.92
2019-02-02T05:47:52.308Z,98349.30
2019-02-02T05:50:23.230Z,98374.53
2019-02-02T05:52:52.227Z,98379.52
2019-02-02T05:55:22.848Z,98382.89
2019-02-02T05:57:51.438Z,98386.19
2019-02-02T06:00:34.030Z,98384.06
2019-02-02T06:03:02.434Z,98386.97
2019-02-02T06:05:30.877Z,98383.19
2019-02-02T06:07:59.324Z,98387.35
2019-02-02T06:10:27.827Z,98378.55
2019-02-02T06:12:56.267Z,98389.39
2019-02-02T06:15:24.690Z,98389.88
2019-02-02T06:17:53.114Z,98396.98
2019-02-02T06:20:21.554Z,98394.45
2019-02-02T06:22:49.984Z,98391.13
2019-02-02T06:25:18.519Z,98386.09
2019-02-02T06:27:46.942Z,98380.19
2019-02-02T06:30:20.723Z,98395.24
2019-02-02T06:32:49.286Z,98403.65
2019-02-02T06:35:18.999Z,98397.75
2019-02-02T06:37:47.504Z,98405.69
2019-02-02T06:40:17.764Z,98414.48
2019-02-02T06:42:46.802Z,98425.33
2019-02-02T06:45:32.778Z,98425.41
2019-02-02T06:48:01.403Z,98421.25
2019-02-02T06:50:29.819Z,98425.07
2019-02-02T06:52:59.189Z,98417.05
2019-02-02T06:55:27.824Z,98417.10
2019-02-02T06:57:56.331Z,98435.52
2019-02-02T07:00:27.230Z,98426.77
2019-02-02T07:02:56.732Z,98437.65
2019-02-02T07:05:25.753Z,98436.39
2019-02-02T07:07:54.283Z,98420.09
2019-02-02T07:10:27.964Z,98441.07
2019-02-02T07:12:56.612Z,98447.83
2019-02-02T07:15:32.082Z,98438.99
2019-02-02T07:18:00.496Z,98456.63
2019-02-02T07:20:28.994Z,98462.48
2019-02-02T07:22:57.551Z,98466.69
2019-02-02T07:25:25.975Z,98472.97
2019-02-02T07:27:54.845Z,98474.66
2019-02-02T07:30:29.597Z,98468.02
2019-02-02T07:32:55.256Z,98459.61
2019-02-02T07:35:23.965Z,98460.02
2019-02-02T07:37:52.453Z,98462.56
2019-02-02T07:40:22.234Z,98471.82
2019-02-02T07:42:51.216Z,98483.50
2019-02-02T07:45:28.364Z,98485.15
2019-02-02T07:47:56.848Z,98473.47
2019-02-02T07:50:25.273Z,98451.64
2019-02-02T07:52:53.784Z,98452.04
2019-02-02T07:55:23.361Z,98443.66
2019-02-02T07:57:52.226Z,98447.00
2019-02-02T08:00:26.278Z,98444.49
2019-02-02T08:02:54.755Z,98449.98
2019-02-02T08:05:23.258Z,98451.60
2019-02-02T08:07:51.962Z,98454.11
2019-02-02T08:10:20.521Z,98448.66
2019-02-02T08:12:49.040Z,98448.30
2019-02-02T08:15:29.255Z,98451.64
2019-02-02T08:17:58.709Z,98449.05
2019-02-02T08:20:30.705Z,98459.11
2019-02-02T08:22:59.145Z,98468.73
2019-02-02T08:25:27.744Z,98481.70
2019-02-02T08:27:56.309Z,98488.77
2019-02-02T08:30:30.590Z,98493.38
2019-02-02T08:32:58.994Z,98491.67
2019-02-02T08:35:27.421Z,98499.62
2019-02-02T08:37:55.935Z,98508.45
2019-02-02T08:40:24.514Z,98517.19
2019-02-02T08:42:52.954Z,98536.05
2019-02-02T08:45:21.528Z,98548.62
2019-02-02T08:47:49.998Z,98554.48
2019-02-02T08:50:21.480Z,98552.83
2019-02-02T08:52:49.912Z,98552.40
2019-02-02T08:55:18.436Z,98565.81
2019-02-02T08:57:46.908Z,98575.01
2019-02-02T09:00:20.240Z,98575.87
2019-02-02T09:02:48.836Z,98565.81
2019-02-02T09:05:19.956Z,98561.63
2019-02-02T09:07:48.360Z,98552.83
2019-02-02T09:10:24.862Z,98546.94
2019-02-02T09:12:53.330Z,98548.62
2019-02-02T09:15:22.080Z,98552.80
2019-02-02T09:17:50.542Z,98556.14
2019-02-02T09:20:19.110Z,98553.23
2019-02-02T09:22:48.467Z,98558.69
2019-02-02T09:25:18.545Z,98564.55
2019-02-02T09:27:47.443Z,98564.55
2019-02-02T09:30:25.083Z,98564.08
2019-02-02T09:32:53.557Z,98557.36
2019-02-02T09:35:22.100Z,98554.84
2019-02-02T09:37:50.600Z,98558.61
2019-02-02T09:40:20.495Z,98565.34
2019-02-02T09:42:49.014Z,98577.05
2019-02-02T09:45:20.324Z,98587.91
2019-02-02T09:47:52.595Z,98585.35
2019-02-02T09:50:23.924Z,98587.44
2019-02-02T09:52:52.402Z,98586.19
2019-02-02T09:55:25.763Z,98597.47
2019-02-02T09:57:59.742Z,98599.94
2019-02-02T10:00:30.810Z,98607.45
2019-02-02T10:02:59.307Z,98613.70
2019-02-02T10:05:28.481Z,98613.70
2019-02-02T10:07:57.066Z,98613.27
2019-02-02T10:10:31.102Z,98614.53
2019-02-02T10:12:59.676Z,98609.14
2019-02-02T10:15:28.308Z,98603.63
2019-02-02T10:17:56.960Z,98607.84
2019-02-02T10:20:30.501Z,98609.06
2019-02-02T10:23:00.688Z,98610.32
2019-02-02T10:25:31.178Z,98609.84
2019-02-02T10:28:00.068Z,98613.63
2019-02-02T10:30:31.195Z,98615.70
2019-02-02T10:33:00.084Z,98615.27
2019-02-02T10:35:28.790Z,98603.45
2019-02-02T10:37:57.309Z,98604.23
2019-02-02T10:40:25.834Z,98603.75
2019-02-02T10:42:54.365Z,98598.70
2019-02-02T10:45:23.347Z,98605.83
2019-02-02T10:47:51.850Z,98605.87
2019-02-02T10:50:23.355Z,98610.09
2019-02-02T10:52:51.908Z,98607.19
2019-02-02T10:55:20.703Z,98622.34
2019-02-02T10:57:49.147Z,98626.12
2019-02-02T11:00:28.998Z,98626.12
2019-02-02T11:02:57.577Z,98627.34
2019-02-02T11:05:26.559Z,98622.83
2019-02-02T11:07:55.370Z,98620.27
2019-02-02T11:10:31.958Z,98621.92
2019-02-02T11:13:00.731Z,98626.52
2019-02-02T11:15:29.544Z,98616.02
2019-02-02T11:17:58.161Z,98607.58
2019-02-02T11:20:35.296Z,98608.84
2019-02-02T11:23:03.996Z,98613.00
2019-02-02T11:25:32.594Z,98624.38
2019-02-02T11:28:01.057Z,98630.73
2019-02-02T11:30:30.654Z,98622.44
2019-02-02T11:32:59.098Z,98624.95
2019-02-02T11:35:27.618Z,98632.08
2019-02-02T11:37:56.077Z,98624.13
2019-02-02T11:40:33.072Z,98619.05
2019-02-02T11:43:01.646Z,98624.91
2019-02-02T11:45:30.159Z,98624.48
2019-02-02T11:47:58.650Z,98620.66
2019-02-02T11:50:27.658Z,98620.30
2019-02-02T11:52:56.088Z,98627.82
2019-02-02T11:55:26.701Z,98630.47
2019-02-02T11:57:55.203Z,98638.02
2019-02-02T12:00:35.956Z,98652.61
2019-02-02T12:03:04.949Z,98649.27
2019-02-02T12:05:33.757Z,98656.42
2019-02-02T12:08:02.306Z,98662.33
2019-02-02T12:10:32.901Z,98663.62
2019-02-02T12:13:01.457Z,98670.31
2019-02-02T12:15:30.253Z,98668.66
2019-02-02T12:17:58.782Z,98668.27
2019-02-02T12:20:27.356Z,98669.13
2019-02-02T12:22:55.961Z,98684.20
2019-02-02T12:25:24.487Z,98687.15
2019-02-02T12:27:52.977Z,98691.72
2019-02-02T12:30:26.768Z,98695.49
2019-02-02T12:32:55.210Z,98695.89
2019-02-02T12:35:25.927Z,98696.36
2019-02-02T12:37:54.947Z,98702.28
2019-02-02T12:40:25.404Z,98701.39
2019-02-02T12:42:53.862Z,98706.45
2019-02-02T12:45:31.041Z,98705.56
2019-02-02T12:47:59.567Z,98709.34
2019-02-02T12:50:28.004Z,98703.91
2019-02-02T12:52:56.537Z,98700.13
2019-02-02T12:55:26.074Z,98698.88
2019-02-02T12:57:54.636Z,98701.82
2019-02-02T13:00:23.073Z,98710.59
2019-02-02T13:02:51.513Z,98716.06
2019-02-02T13:05:22.694Z,98708.55
2019-02-02T13:07:51.204Z,98708.98
2019-02-02T13:10:24.442Z,98711.89
2019-02-02T13:12:52.570Z,98709.77
2019-02-02T13:15:21.137Z,98712.72
2019-02-02T13:17:49.634Z,98716.47
2019-02-02T13:20:18.750Z,98713.09
2019-02-02T13:22:47.771Z,98717.33
2019-02-02T13:25:18.307Z,98721.90
2019-02-02T13:27:46.760Z,98724.41
2019-02-02T13:30:21.324Z,98724.02
2019-02-02T13:32:50.382Z,98726.14
2019-02-02T13:35:20.164Z,98737.03
2019-02-02T13:37:48.607Z,98737.90
2019-02-02T13:40:19.764Z,98729.48
2019-02-02T13:42:48.274Z,98733.66
2019-02-02T13:45:19.227Z,98735.75
2019-02-02T13:47:48.168Z,98739.52
2019-02-02T13:50:17.903Z,98742.01
2019-02-02T13:52:47.722Z,98749.16
2019-02-02T13:55:16.249Z,98753.80
2019-02-02T13:57:44.765Z,98756.35
2019-02-02T14:00:28.306Z,98757.21
2019-02-02T14:03:02.831Z,98753.00
2019-02-02T14:05:27.067Z,98751.72
2019-02-02T14:07:56.346Z,98743.70
2019-02-02T14:10:33.457Z,98746.22
2019-02-02T14:13:01.881Z,98747.91
2019-02-02T14:15:31.199Z,98757.12
2019-02-02T14:17:59.764Z,98758.77
2019-02-02T14:20:28.177Z,98770.54
2019-02-02T14:22:56.625Z,98773.09
2019-02-02T14:25:25.057Z,98777.67
2019-02-02T14:27:53.577Z,98782.24
2019-02-02T14:30:24.145Z,98793.17
2019-02-02T14:32:54.781Z,98787.70
2019-02-02T14:35:25.550Z,98794.41
2019-02-02T14:37:54.027Z,98797.32
2019-02-02T14:40:22.488Z,98804.87
2019-02-02T14:42:51.043Z,98810.34
2019-02-02T14:45:21.928Z,98822.52
2019-02-02T14:47:50.431Z,98822.91
2019-02-02T14:50:20.751Z,98826.69
2019-02-02T14:52:50.671Z,98828.44
2019-02-02T14:55:27.202Z,98836.84
2019-02-02T14:57:55.774Z,98830.95
2019-02-02T15:00:28.965Z,98838.08
2019-02-02T15:02:57.552Z,98838.08
2019-02-02T15:05:26.224Z,98847.30
2019-02-02T15:07:54.671Z,98848.59
2019-02-02T15:10:24.423Z,98852.77
2019-02-02T15:12:52.998Z,98856.55
2019-02-02T15:15:21.583Z,98857.86
2019-02-02T15:17:49.998Z,98856.97
2019-02-02T15:20:27.834Z,98859.06
2019-02-02T15:22:56.377Z,98869.62
2019-02-02T15:25:24.951Z,98879.69
2019-02-02T15:27:53.455Z,98880.49
2019-02-02T15:30:27.124Z,98888.91
2019-02-02T15:32:55.721Z,98889.77
2019-02-02T15:35:24.333Z,98899.39
2019-02-02T15:37:52.815Z,98908.61
2019-02-02T15:40:22.010Z,98915.73
2019-02-02T15:42:50.467Z,98919.94
2019-02-02T15:45:30.666Z,98916.19
2019-02-02T15:47:59.123Z,98922.08
2019-02-02T15:50:27.690Z,98923.32
2019-02-02T15:52:56.233Z,98927.09
2019-02-02T15:55:25.488Z,98935.06
2019-02-02T15:57:54.011Z,98927.94
2019-02-02T16:00:28.620Z,98935.08
2019-02-02T16:02:57.162Z,98939.70
2019-02-02T16:05:26.559Z,98945.58
2019-02-02T16:07:56.135Z,98956.05
2019-02-02T16:10:30.582Z,98962.36
2019-02-02T16:12:59.220Z,98963.64
2019-02-02T16:15:27.753Z,98965.70
2019-02-02T16:17:56.133Z,98972.44
2019-02-02T16:20:36.723Z,98976.22
2019-02-02T16:23:05.935Z,98977.88
2019-02-02T16:25:34.498Z,98988.80
2019-02-02T16:28:03.026Z,98998.05
2019-02-02T16:30:32.319Z,99008.55
2019-02-02T16:33:00.762Z,99008.95
2019-02-02T16:35:29.446Z,99013.58
2019-02-02T16:37:57.886Z,99020.73
2019-02-02T16:40:28.706Z,99022.39
2019-02-02T16:42:57.554Z,99024.06
2019-02-02T16:45:33.754Z,99033.31
2019-02-02T16:48:02.262Z,99032.90
2019-02-02T16:50:30.697Z,99040.02
2019-02-02T16:52:59.277Z,99046.31
2019-02-02T16:55:27.654Z,99043.38
2019-02-02T16:57:56.116Z,99048.42
2019-02-02T17:00:30.584Z,99052.61
2019-02-02T17:02:59.419Z,99056.83
2019-02-02T17:05:27.889Z,99057.66
2019-02-02T17:07:56.493Z,99063.52
2019-02-02T17:10:28.041Z,99068.56
2019-02-02T17:12:56.549Z,99069.84
2019-02-02T17:15:25.046Z,99069.82
2019-02-02T17:17:53.576Z,99066.05
2019-02-02T17:20:25.030Z,99070.26
2019-02-02T17:22:53.528Z,99075.27
2019-02-02T17:25:23.217Z,99084.51
2019-02-02T17:27:51.845Z,99087.46
2019-02-02T17:30:22.441Z,99097.52
2019-02-02T17:32:52.324Z,99103.82
2019-02-02T17:35:20.835Z,99108.44
2019-02-02T17:37:49.355Z,99116.84
2019-02-02T17:40:20.722Z,99121.02
2019-02-02T17:42:49.293Z,99131.11
2019-02-02T17:45:20.122Z,99138.23
2019-02-02T17:47:50.160Z,99139.09
2019-02-02T17:50:20.848Z,99147.45
2019-02-02T17:52:49.381Z,99147.89
2019-02-02T17:55:18.044Z,99163.40
2019-02-02T17:57:46.971Z,99170.56
2019-02-02T18:00:40.685Z,99174.73
2019-02-02T18:03:09.146Z,99179.79
2019-02-02T18:05:37.603Z,99181.05
2019-02-02T18:08:06.183Z,99186.91
2019-02-02T18:10:34.867Z,99179.34
2019-02-02T18:13:03.358Z,99186.50
2019-02-02T18:15:31.796Z,99184.38
2019-02-02T18:18:02.399Z,99192.38
2019-02-02T18:20:30.462Z,99195.30
2019-02-02T18:22:58.945Z,99190.70
2019-02-02T18:25:27.462Z,99186.09
2019-02-02T18:27:55.919Z,99189.86
2019-02-02T18:30:28.492Z,99191.14
2019-02-02T18:32:57.089Z,99199.51
2019-02-02T18:35:25.887Z,99201.17
2019-02-02T18:37:54.402Z,99205.38
2019-02-02T18:40:26.587Z,99207.08
2019-02-02T18:42:55.281Z,99210.42
2019-02-02T18:45:28.524Z,99208.75
2019-02-02T18:47:57.157Z,99216.30
2019-02-02T18:50:25.779Z,99215.05
2019-02-02T18:52:56.726Z,99209.58
2019-02-02T18:55:40.156Z,99206.63
2019-02-02T18:58:08.741Z,99211.27
2019-02-02T19:00:37.354Z,99217.55
2019-02-02T19:03:06.631Z,99217.14
2019-02-02T19:05:35.313Z,99226.35
2019-02-02T19:08:03.952Z,99225.52
2019-02-02T19:10:35.912Z,99231.41
2019-02-02T19:13:05.495Z,99241.87
2019-02-02T19:15:34.033Z,99249.42
2019-02-02T19:18:03.371Z,99252.80
2019-02-02T19:20:31.977Z,99254.87
2019-02-02T19:23:00.490Z,99259.91
2019-02-02T19:25:28.944Z,99259.09
2019-02-02T19:27:57.471Z,99262.87
2019-02-02T19:30:31.227Z,99259.49
2019-02-02T19:32:59.796Z,99267.06
2019-02-02T19:35:28.250Z,99268.31
2019-02-02T19:37:56.815Z,99270.42
2019-02-02T19:40:25.335Z,99280.05
2019-02-02T19:42:54.362Z,99280.03
2019-02-02T19:45:27.440Z,99281.72
2019-02-02T19:47:55.863Z,99282.55
2019-02-02T19:50:26.347Z,99283.83
2019-02-02T19:52:54.893Z,99293.46
2019-02-02T19:55:23.323Z,99293.91
2019-02-02T19:57:51.746Z,99301.89
2019-02-02T20:00:22.929Z,99305.23
2019-02-02T20:02:51.419Z,99313.22
2019-02-02T20:05:28.224Z,99311.96
2019-02-02T20:07:50.716Z,99312.41
2019-02-02T20:10:19.693Z,99315.77
2019-02-02T20:12:48.223Z,99319.13
2019-02-02T20:15:19.048Z,99317.45
2019-02-02T20:17:47.563Z,99325.02
2019-02-02T20:20:18.305Z,99332.16
2019-02-02T20:22:46.863Z,99331.74
2019-02-02T20:25:16.549Z,99337.19
2019-02-02T20:27:45.157Z,99333.84
2019-02-02T20:30:16.745Z,99337.61
2019-02-02T20:32:45.269Z,99345.59
2019-02-02T20:35:15.956Z,99353.14
2019-02-02T20:37:44.595Z,99361.16
2019-02-02T20:40:18.127Z,99370.77
2019-02-02T20:42:46.610Z,99381.28
2019-02-02T20:45:20.733Z,99385.46
2019-02-02T20:47:49.173Z,99391.34
2019-02-02T20:50:19.092Z,99388.41
2019-02-02T20:52:48.040Z,99399.72
2019-02-02T20:55:22.717Z,99410.62
2019-02-02T20:57:51.731Z,99411.46
2019-02-02T21:00:22.644Z,99414.39
2019-02-02T21:02:51.108Z,99422.39
2019-02-02T21:05:19.524Z,99436.23
2019-02-02T21:07:48.010Z,99436.59
2019-02-02T21:10:18.726Z,99452.55
2019-02-02T21:12:47.229Z,99462.64
2019-02-02T21:15:16.133Z,99466.38
2019-02-02T21:17:45.671Z,99465.95
2019-02-02T21:20:22.314Z,99471.02
2019-02-02T21:23:00.627Z,99480.73
2019-02-02T21:25:29.028Z,99476.09
2019-02-02T21:27:57.482Z,99473.19
2019-02-02T21:30:31.273Z,99466.44
2019-02-02T21:32:59.749Z,99468.53
2019-02-02T21:35:28.325Z,99471.50
2019-02-02T21:37:56.926Z,99474.03
2019-02-02T21:40:31.199Z,99476.13
2019-02-02T21:42:59.792Z,99482.02
2019-02-02T21:45:28.367Z,99476.58
2019-02-02T21:47:56.911Z,99480.36
2019-02-02T21:50:26.131Z,99489.17
2019-02-02T21:52:56.154Z,99494.65
2019-02-02T21:55:26.965Z,99505.98
2019-02-02T21:57:55.685Z,99521.94
2019-02-02T22:00:38.842Z,99534.11
2019-02-02T22:03:07.753Z,99540.39
2019-02-02T22:05:36.265Z,99547.91
2019-02-02T22:08:06.099Z,99553.80
2019-02-02T22:10:34.484Z,99551.73
2019-02-02T22:13:02.959Z,99560.06
2019-02-02T22:15:31.657Z,99567.66
2019-02-02T22:18:00.100Z,99574.41
2019-02-02T22:20:28.599Z,99574.02
2019-02-02T22:22:57.224Z,99577.80
2019-02-02T22:25:33.953Z,99583.67
2019-02-02T22:28:02.405Z,99583.67
2019-02-02T22:30:36.577Z,99582.81
2019-02-02T22:33:05.992Z,99583.67
2019-02-02T22:35:34.795Z,99589.50
2019-02-02T22:38:03.775Z,99589.06
2019-02-02T22:40:32.371Z,99602.04
2019-02-02T22:43:00.825Z,99601.65
2019-02-02T22:45:29.238Z,99610.45
2019-02-02T22:47:57.697Z,99615.13
2019-02-02T22:50:28.235Z,99625.98
2019-02-02T22:52:56.800Z,99631.88
2019-02-02T22:55:25.712Z,99628.55
2019-02-02T22:57:54.909Z,99628.55
2019-02-02T23:00:28.037Z,99632.32
2019-02-02T23:02:57.090Z,99646.59
2019-02-02T23:05:31.408Z,99650.40
2019-02-02T23:08:03.972Z,99654.11
2019-02-02T23:10:50.744Z,99650.77
2019-02-02T23:13:25.063Z,99652.02
2019-02-02T23:16:13.328Z,99647.82
2019-02-02T23:18:41.885Z,99643.22
2019-02-02T23:21:10.654Z,99644.94
2019-02-02T23:23:39.083Z,99646.17
2019-02-02T23:26:07.530Z,99652.03
2019-02-02T23:28:36.096Z,99657.47
2019-02-02T23:31:04.672Z,99658.75
2019-02-02T23:33:33.124Z,99664.23
2019-02-02T23:36:01.634Z,99667.15
2019-02-02T23:38:30.068Z,99662.95
2019-02-02T23:40:58.504Z,99674.30
2019-02-02T23:43:26.952Z,99675.94
2019-02-02T23:45:56.929Z,99678.91
2019-02-02T23:48:25.931Z,99675.10
2019-02-02T23:50:54.390Z,99674.28
2019-02-02T23:53:22.812Z,99669.66
2019-02-02T23:55:51.254Z,99667.58
2019-02-02T23:58:19.701Z,99664.63
